Flight Track Log - Related Links

Times and Time Zones

All times are in EDT time to prevent confusion due to time zone crossing. See the AAL297 flight status page for this flight to view local times or setup timezone preferences in your user account.

Time Position Orientation Groundspeed Altitude Reporting Facility
EDT Latitude Longitude Course Direction KTS MPH feet Rate Location/Type
Mon 08:29:17 PM 33.9440 -118.4480 262° West 174 200 1,000  Level FlightAware ADS-B
Mon 08:29:57 PM 33.9400 -118.4920 264° West 215 247 2,200 1,636 Climbing FlightAware ADS-B
Mon 08:30:34 PM 33.9340 -118.5400 261° West 256 295 3,100 1,818 Climbing FlightAware ADS-B
Mon 08:31:03 PM 33.9300 -118.5820 263° West 260 299 4,200 2,160 Climbing FlightAware ADS-B
Mon 08:31:49 PM 33.9230 -118.6480 263° West 273 314 5,800 1,674 Climbing FlightAware ADS-B
Mon 08:32:29 PM 33.9150 -118.7140 262° West 302 348 6,600 1,066 Climbing FlightAware ADS-B
Mon 08:34:21 PM 33.8770 -118.9030 256° West 320 368 8,500 1,029 Climbing FlightAware ADS-B
Mon 08:34:49 PM 33.8470 -118.9380 224° Southwest 322 371 9,000 537 Climbing FlightAware ADS-B
Mon 08:35:28 PM 33.8100 -118.9790 223° Southwest 322 371 9,100 1,487 Climbing FlightAware ADS-B
Mon 08:36:46 PM 33.7210 -119.0760 222° Southwest 329 379 11,900 2,211 Climbing FlightAware ADS-B
Mon 08:37:22 PM 33.6720 -119.1320 224° Southwest 362 417 13,300 2,143 Climbing FlightAware ADS-B
Mon 08:38:10 PM 33.6180 -119.1910 222° Southwest 367 422 14,900 2,049 Climbing FlightAware ADS-B
Mon 08:38:44 PM 33.5720 -119.2430 223° Southwest 377 434 16,100 1,563 Climbing FlightAware ADS-B
Mon 08:39:46 PM 33.4930 -119.3280 222° Southwest 380 437 17,400 1,837 Climbing FlightAware ADS-B
Mon 08:40:22 PM 33.4600 -119.3650 223° Southwest 384 442 19,100 2,714 Climbing FlightAware ADS-B
Mon 08:41:10 PM 33.3780 -119.4560 223° Southwest 387 445 21,200 2,225 Climbing FlightAware ADS-B
Mon 08:41:51 PM 33.3270 -119.5120 223° Southwest 392 451 22,400 1,012 Climbing FlightAware ADS-B
Mon 08:42:33 PM 33.2740 -119.5680 221° Southwest 392 451 22,600 1,714 Climbing FlightAware ADS-B
Mon 08:43:08 PM 33.2200 -119.6290 223° Southwest 401 461 24,600 1,875 Climbing FlightAware ADS-B
Mon 08:43:53 PM 33.1630 -119.6900 222° Southwest 404 465 25,100 316 Climbing FlightAware ADS-B
Mon 08:44:43 PM 33.1040 -119.7540 222° Southwest 404 465 25,100  Level FlightAware ADS-B
Mon 08:45:17 PM 33.0640 -119.7970 222° Southwest 404 465 25,100  Level FlightAware ADS-B
Mon 08:46:05 PM 33.0070 -119.8580 222° Southwest 404 465 25,100  Level FlightAware ADS-B
Mon 08:46:42 PM 32.9640 -119.9050 223° Southwest 404 465 25,100 4,521 Level FlightAware ADS-B
Mon 08:47:18 PM 32.8806 -119.9928 223° Southwest 420 483 30,600 4,408 Climbing Los Angeles Center
Mon 08:48:20 PM 32.7878 -120.0950 223° Southwest 418 481 32,300 1,500 Climbing Los Angeles Center
Mon 08:49:22 PM 32.7014 -120.1853 221° Southwest 413 475 33,700 1,210 Climbing Los Angeles Center
Mon 08:50:24 PM 32.6175 -120.2761 222° Southwest 409 471 34,800 1,065 Climbing Los Angeles Center
Mon 08:51:26 PM 32.5325 -120.3658 222° Southwest 408 470 35,900 581 Climbing Los Angeles Center
Mon 08:52:28 PM 32.4478 -120.4564 222° Southwest 409 471 36,000 48 Climbing Los Angeles Center
Mon 08:53:30 PM 32.3439 -120.5653 222° Southwest 413 475 36,000  Level Los Angeles Center
Mon 08:54:32 PM 32.2567 -120.6581 222° Southwest 419 482 36,000  Level Los Angeles Center
Mon 08:55:34 PM 32.1697 -120.7531 223° Southwest 423 487 36,000  Level Los Angeles Center
Mon 08:56:36 PM 32.0811 -120.8422 220° Southwest 419 482 36,000  Level Los Angeles Center
Mon 08:57:38 PM 31.9947 -120.9369 223° Southwest 423 487 36,000  Level Los Angeles Center
Mon 08:58:40 PM 31.9069 -121.0267 221° Southwest 418 481 36,000  Level Los Angeles Center
Mon 08:59:42 PM 31.8192 -121.1164 221° Southwest 417 480 36,000  Level Los Angeles Center
Mon 09:00:44 PM 31.7158 -121.2292 223° Southwest 422 486 36,000  Level Los Angeles Center
Mon 09:01:45 PM 31.6283 -121.3144 220° Southwest 413 475 36,000  Level Los Angeles Center
Mon 09:02:47 PM 31.5531 -121.4117 228° Southwest 400 460 36,000  Level Los Angeles Center
Mon 09:03:49 PM 31.5256 -121.5336 255° West 384 442 36,000  Level Los Angeles Center
Mon 09:05:00 PM 31.4962 -121.6825 257° West  Level FlightAware Approximate
Mon 09:12:00 PM 31.3189 -122.5611 257° West  Level FlightAware Approximate
Mon 09:13:00 PM 31.2931 -122.6864 256° West  Level FlightAware Approximate
Mon 09:14:00 PM 31.2675 -122.8117 257° West  Level FlightAware Approximate
Mon 09:15:00 PM 31.2421 -122.9370 257° West  Level FlightAware Approximate
Mon 09:16:00 PM 31.2166 -123.0622 257° West  Level FlightAware Approximate
Mon 09:17:00 PM 31.1910 -123.1874 257° West  Level FlightAware Approximate
Mon 09:18:00 PM 31.1653 -123.3125 257° West  Level FlightAware Approximate
Mon 09:19:00 PM 31.1394 -123.4375 256° West  Level FlightAware Approximate
Mon 09:20:00 PM 31.1108 -123.5616 256° West  Level FlightAware Approximate
Mon 09:21:00 PM 31.0847 -123.6865 256° West  Level FlightAware Approximate
Mon 09:21:57 PM 31.1333 -123.5500 256° West 404 465 36,000  Level Oakland Oceanic (ODAPS)
Mon 09:22:00 PM 31.0586 -123.8114 256° West  Level FlightAware Approximate
Mon 09:23:00 PM 31.0323 -123.9361 256° West  Level FlightAware Approximate
Mon 09:24:00 PM 31.0058 -124.0609 256° West  Level FlightAware Approximate
Mon 09:25:00 PM 30.9797 -124.1851 257° West  Level FlightAware Approximate
Mon 09:26:00 PM 30.9549 -124.3098 257° West  Level FlightAware Approximate
Mon 09:27:00 PM 30.9300 -124.4344 257° West  Level FlightAware Approximate
Mon 09:28:00 PM 30.8807 -124.6878 255° West 404 465 36,000  Level FlightAware Transoceanic
Mon 09:29:00 PM 30.8520 -124.8139 255° West 404 465 36,000  Level FlightAware Transoceanic
Mon 09:30:00 PM 30.8232 -124.9398 255° West 404 465 36,000  Level FlightAware Transoceanic
Mon 09:31:00 PM 30.7943 -125.0658 255° West 404 465 36,000  Level FlightAware Transoceanic
Mon 09:32:00 PM 30.7652 -125.1916 255° West 404 465 36,000  Level FlightAware Transoceanic
Mon 09:33:00 PM 30.7360 -125.3173 255° West 404 465 36,000  Level FlightAware Transoceanic
Mon 09:34:00 PM 30.7067 -125.4430 255° West 404 465 36,000  Level FlightAware Transoceanic
Mon 09:35:00 PM 30.6773 -125.5686 255° West 404 465 36,000  Level FlightAware Transoceanic
Mon 09:36:00 PM 30.6478 -125.6941 255° West 404 465 36,000  Level FlightAware Transoceanic
Mon 09:37:00 PM 30.6181 -125.8195 255° West 404 465 36,000  Level FlightAware Transoceanic
Mon 09:38:00 PM 30.5884 -125.9449 255° West 404 465 36,000  Level FlightAware Transoceanic
Mon 09:39:00 PM 30.5585 -126.0702 254° West 404 465 36,000  Level FlightAware Transoceanic
Mon 09:40:00 PM 30.5285 -126.1954 254° West 404 465 36,000  Level FlightAware Transoceanic
Mon 09:41:00 PM 30.4983 -126.3205 254° West 404 465 36,000  Level FlightAware Transoceanic
Mon 09:42:00 PM 30.4681 -126.4456 254° West 404 465 36,000  Level FlightAware Transoceanic
Mon 09:43:00 PM 30.4377 -126.5706 254° West 404 465 36,000  Level FlightAware Transoceanic
Mon 09:44:00 PM 30.4072 -126.6955 254° West 404 465 36,000  Level FlightAware Transoceanic
Mon 09:45:00 PM 30.3766 -126.8203 254° West 404 465 36,000  Level FlightAware Transoceanic
Mon 09:46:00 PM 30.3458 -126.9450 254° West 404 465 36,000  Level FlightAware Transoceanic
Mon 09:47:00 PM 30.3150 -127.0697 254° West 404 465 36,000  Level FlightAware Transoceanic
Mon 09:48:00 PM 30.2840 -127.1943 254° West 404 465 36,000  Level FlightAware Transoceanic
Mon 09:49:00 PM 30.2529 -127.3188 254° West 404 465 36,000  Level FlightAware Transoceanic
Mon 09:50:00 PM 30.2217 -127.4432 254° West 404 465 36,000  Level FlightAware Transoceanic
Mon 09:51:00 PM 30.1904 -127.5676 254° West 404 465 36,000  Level FlightAware Transoceanic
Mon 09:52:00 PM 30.1590 -127.6918 254° West 404 465 36,000  Level FlightAware Transoceanic
Mon 09:53:00 PM 30.1274 -127.8160 254° West 404 465 36,000  Level FlightAware Transoceanic
Mon 09:54:00 PM 30.0958 -127.9401 254° West 404 465 36,000  Level FlightAware Transoceanic
Mon 09:55:00 PM 30.0640 -128.0642 253° West 404 465 36,000  Level FlightAware Transoceanic
Mon 09:56:00 PM 30.0321 -128.1881 253° West 404 465 36,000  Level FlightAware Transoceanic
Mon 09:57:00 PM 30.0000 -128.3120 253° West 404 465 36,000  Level FlightAware Transoceanic
Mon 09:58:00 PM 29.9679 -128.4358 253° West 404 465 36,000  Level FlightAware Transoceanic
Mon 09:59:00 PM 29.9356 -128.5595 253° West 404 465 36,000  Level FlightAware Transoceanic
Mon 10:00:00 PM 29.9033 -128.6831 253° West 404 465 36,000  Level FlightAware Transoceanic
Mon 10:01:00 PM 29.8708 -128.8067 253° West 404 465 36,000  Level FlightAware Transoceanic
Mon 10:02:00 PM 29.8382 -128.9301 253° West 404 465 36,000  Level FlightAware Transoceanic
Mon 10:03:00 PM 29.8055 -129.0535 253° West 404 465 36,000  Level FlightAware Transoceanic
Mon 10:04:00 PM 29.7727 -129.1768 253° West 404 465 36,000  Level FlightAware Transoceanic
Mon 10:05:00 PM 29.7397 -129.3000 253° West 404 465 36,000  Level FlightAware Transoceanic
Mon 10:06:00 PM 29.7067 -129.4232 253° West 404 465 36,000  Level FlightAware Transoceanic
Mon 10:07:00 PM 29.6735 -129.5463 253° West 404 465 36,000  Level FlightAware Transoceanic
Mon 10:08:00 PM 29.6402 -129.6693 253° West 404 465 36,000  Level FlightAware Transoceanic
Mon 10:09:00 PM 29.6068 -129.7921 253° West 404 465 36,000  Level FlightAware Transoceanic
Mon 10:10:00 PM 29.5733 -129.9150 253° West 404 465 36,000  Level FlightAware Transoceanic
Mon 10:11:00 PM 29.5397 -130.0377 252° West 404 465 36,000  Level FlightAware Transoceanic
Mon 10:12:00 PM 29.5060 -130.1604 252° West 404 465 36,000  Level FlightAware Transoceanic
Mon 10:13:00 PM 29.4721 -130.2829 252° West 404 465 36,000  Level FlightAware Transoceanic
Mon 10:14:00 PM 29.4381 -130.4054 252° West 404 465 36,000  Level FlightAware Transoceanic
Mon 10:15:00 PM 29.4041 -130.5278 252° West 404 465 36,000  Level FlightAware Transoceanic
Mon 10:16:00 PM 29.3699 -130.6502 252° West 404 465 36,000  Level FlightAware Transoceanic
Mon 10:17:00 PM 29.3356 -130.7724 252° West 404 465 36,000  Level FlightAware Transoceanic
Mon 10:18:00 PM 29.3012 -130.8946 252° West 404 465 36,000  Level FlightAware Transoceanic
Mon 10:19:00 PM 29.2667 -131.0167 252° West 404 465 36,000  Level FlightAware Transoceanic
Mon 10:20:00 PM 29.2320 -131.1389 252° West 404 465 36,000  Level FlightAware Transoceanic
Mon 10:21:00 PM 29.1973 -131.2610 252° West 404 465 36,000  Level FlightAware Transoceanic
Mon 10:22:00 PM 29.1624 -131.3830 252° West 404 465 36,000  Level FlightAware Transoceanic
Mon 10:22:29 PM 29.2667 -131.0167 252° West 397 457 36,000  Level Oakland Oceanic (ODAPS)
Mon 10:23:00 PM 29.1275 -131.5050 252° West 404 465 36,000  Level FlightAware Transoceanic
Mon 10:24:00 PM 29.0924 -131.6268 252° West 404 465 36,000  Level FlightAware Transoceanic
Mon 10:25:00 PM 29.0572 -131.7486 252° West 404 465 36,000  Level FlightAware Transoceanic
Mon 10:26:00 PM 29.0219 -131.8703 252° West 404 465 36,000  Level FlightAware Transoceanic
Mon 10:27:00 PM 28.9865 -131.9919 252° West 404 465 36,000  Level FlightAware Transoceanic
Mon 10:28:00 PM 28.9212 -132.2150 251° West 397 457 36,000  Level FlightAware Transoceanic
Mon 10:29:00 PM 28.8860 -132.3344 251° West 397 457 36,000  Level FlightAware Transoceanic
Mon 10:30:00 PM 28.8508 -132.4538 251° West 397 457 36,000  Level FlightAware Transoceanic
Mon 10:31:00 PM 28.8155 -132.5730 251° West 397 457 36,000  Level FlightAware Transoceanic
Mon 10:32:00 PM 28.7800 -132.6921 251° West 397 457 36,000  Level FlightAware Transoceanic
Mon 10:33:00 PM 28.7444 -132.8112 251° West 397 457 36,000  Level FlightAware Transoceanic
Mon 10:34:00 PM 28.7088 -132.9302 251° West 397 457 36,000  Level FlightAware Transoceanic
Mon 10:35:00 PM 28.6730 -133.0491 251° West 397 457 36,000  Level FlightAware Transoceanic
Mon 10:36:00 PM 28.6372 -133.1679 251° West 397 457 36,000  Level FlightAware Transoceanic
Mon 10:37:00 PM 28.6012 -133.2867 251° West 397 457 36,000  Level FlightAware Transoceanic
Mon 10:38:00 PM 28.5651 -133.4053 251° West 397 457 36,000  Level FlightAware Transoceanic
Mon 10:39:00 PM 28.5290 -133.5239 251° West 397 457 36,000  Level FlightAware Transoceanic
Mon 10:40:00 PM 28.4927 -133.6424 251° West 397 457 36,000  Level FlightAware Transoceanic
Mon 10:41:00 PM 28.4563 -133.7608 251° West 397 457 36,000  Level FlightAware Transoceanic
Mon 10:42:00 PM 28.4198 -133.8792 251° West 397 457 36,000  Level FlightAware Transoceanic
Mon 10:43:00 PM 28.3832 -133.9974 251° West 397 457 36,000  Level FlightAware Transoceanic
Mon 10:44:00 PM 28.3465 -134.1156 251° West 397 457 36,000  Level FlightAware Transoceanic
Mon 10:45:00 PM 28.3097 -134.2337 250° West 397 457 36,000  Level FlightAware Transoceanic
Mon 10:46:00 PM 28.2729 -134.3517 250° West 397 457 36,000  Level FlightAware Transoceanic
Mon 10:47:00 PM 28.2359 -134.4696 250° West 397 457 36,000  Level FlightAware Transoceanic
Mon 10:48:00 PM 28.1988 -134.5875 250° West 397 457 36,000  Level FlightAware Transoceanic
Mon 10:49:00 PM 28.1616 -134.7052 250° West 397 457 36,000  Level FlightAware Transoceanic
Mon 10:50:00 PM 28.1243 -134.8229 250° West 397 457 36,000  Level FlightAware Transoceanic
Mon 10:51:00 PM 28.0869 -134.9405 250° West 397 457 36,000  Level FlightAware Transoceanic
Mon 10:52:00 PM 28.0494 -135.0580 250° West 397 457 36,000  Level FlightAware Transoceanic
Mon 10:53:00 PM 28.0118 -135.1755 250° West 397 457 36,000  Level FlightAware Transoceanic
Mon 10:54:00 PM 27.9741 -135.2928 250° West 397 457 36,000  Level FlightAware Transoceanic
Mon 10:55:00 PM 27.9363 -135.4101 250° West 397 457 36,000  Level FlightAware Transoceanic
Mon 10:56:00 PM 27.8984 -135.5273 250° West 397 457 36,000  Level FlightAware Transoceanic
Mon 10:57:00 PM 27.8604 -135.6444 250° West 397 457 36,000  Level FlightAware Transoceanic
Mon 10:58:00 PM 27.8223 -135.7614 250° West 397 457 36,000  Level FlightAware Transoceanic
Mon 10:59:00 PM 27.7841 -135.8784 250° West 397 457 36,000  Level FlightAware Transoceanic
Mon 11:00:00 PM 27.7459 -135.9953 250° West 397 457 36,000  Level FlightAware Transoceanic
Mon 11:01:00 PM 27.7075 -136.1120 250° West 397 457 36,000  Level FlightAware Transoceanic
Mon 11:02:00 PM 27.6690 -136.2287 250° West 397 457 36,000  Level FlightAware Transoceanic
Mon 11:03:00 PM 27.6304 -136.3454 249° West 397 457 36,000  Level FlightAware Transoceanic
Mon 11:04:00 PM 27.5917 -136.4619 249° West 397 457 36,000  Level FlightAware Transoceanic
Mon 11:05:00 PM 27.5529 -136.5783 249° West 397 457 36,000  Level FlightAware Transoceanic
Mon 11:06:00 PM 27.5141 -136.6947 249° West 397 457 36,000  Level FlightAware Transoceanic
Mon 11:07:00 PM 27.4751 -136.8110 249° West 397 457 36,000  Level FlightAware Transoceanic
Mon 11:08:00 PM 27.4360 -136.9272 249° West 397 457 36,000  Level FlightAware Transoceanic
Mon 11:09:00 PM 27.3969 -137.0433 249° West 397 457 36,000  Level FlightAware Transoceanic
Mon 11:10:00 PM 27.3576 -137.1593 249° West 397 457 36,000  Level FlightAware Transoceanic
Mon 11:11:00 PM 27.3183 -137.2753 249° West 397 457 36,000  Level FlightAware Transoceanic
Mon 11:12:00 PM 27.2788 -137.3912 249° West 397 457 36,000  Level FlightAware Transoceanic
Mon 11:13:00 PM 27.2393 -137.5070 249° West 397 457 36,000  Level FlightAware Transoceanic
Mon 11:14:00 PM 27.1996 -137.6227 249° West 397 457 36,000  Level FlightAware Transoceanic
Mon 11:15:00 PM 27.1599 -137.7383 249° West 397 457 36,000  Level FlightAware Transoceanic
Mon 11:16:00 PM 27.1201 -137.8539 249° West 397 457 36,000  Level FlightAware Transoceanic
Mon 11:17:00 PM 27.0801 -137.9693 249° West 397 457 36,000  Level FlightAware Transoceanic
Mon 11:18:00 PM 27.0401 -138.0847 249° West 397 457 36,000  Level FlightAware Transoceanic
Mon 11:19:00 PM 27.0000 -138.2000 249° West 397 457 36,000  Level FlightAware Transoceanic
Mon 11:20:00 PM 26.9589 -138.3174 249° West 397 457 36,000  Level FlightAware Transoceanic
Mon 11:21:00 PM 26.9177 -138.4348 248° West 397 457 36,000  Level FlightAware Transoceanic
Mon 11:21:27 PM 27.0000 -138.2000 249° West 412 474 36,000  Level Oakland Oceanic (ODAPS)
Mon 11:22:00 PM 26.8764 -138.5521 248° West 397 457 36,000  Level FlightAware Transoceanic
Mon 11:23:00 PM 26.8350 -138.6693 248° West 397 457 36,000  Level FlightAware Transoceanic
Mon 11:24:00 PM 26.7935 -138.7863 248° West 397 457 36,000  Level FlightAware Transoceanic
Mon 11:25:00 PM 26.7519 -138.9034 248° West 397 457 36,000  Level FlightAware Transoceanic
Mon 11:26:00 PM 26.7103 -139.0203 248° West 397 457 36,000  Level FlightAware Transoceanic
Mon 11:27:00 PM 26.6627 -139.1532 248° West 412 474 36,000  Level FlightAware Transoceanic
Mon 11:28:00 PM 26.6201 -139.2720 248° West 412 474 36,000  Level FlightAware Transoceanic
Mon 11:29:00 PM 26.5774 -139.3907 248° West 412 474 36,000  Level FlightAware Transoceanic
Mon 11:30:00 PM 26.5346 -139.5092 248° West 412 474 36,000  Level FlightAware Transoceanic
Mon 11:31:00 PM 26.4917 -139.6277 248° West 412 474 36,000  Level FlightAware Transoceanic
Mon 11:32:00 PM 26.4487 -139.7461 248° West 412 474 36,000  Level FlightAware Transoceanic
Mon 11:33:00 PM 26.4056 -139.8644 248° West 412 474 36,000  Level FlightAware Transoceanic
Mon 11:34:00 PM 26.3624 -139.9827 248° West 412 474 36,000  Level FlightAware Transoceanic
Mon 11:35:00 PM 26.3191 -140.1008 248° West 412 474 36,000  Level FlightAware Transoceanic
Mon 11:36:00 PM 26.2757 -140.2188 248° West 412 474 36,000  Level FlightAware Transoceanic
Mon 11:37:00 PM 26.2322 -140.3368 248° West 412 474 36,000  Level FlightAware Transoceanic
Mon 11:38:00 PM 26.1887 -140.4547 248° West 412 474 36,000  Level FlightAware Transoceanic
Mon 11:39:00 PM 26.1450 -140.5724 248° West 412 474 36,000  Level FlightAware Transoceanic
Mon 11:40:00 PM 26.1012 -140.6902 247° West 412 474 36,000  Level FlightAware Transoceanic
Mon 11:41:00 PM 26.0573 -140.8078 247° West 412 474 36,000  Level FlightAware Transoceanic
Mon 11:42:00 PM 26.0134 -140.9253 247° West 412 474 36,000  Level FlightAware Transoceanic
Mon 11:43:00 PM 25.9693 -141.0427 247° West 412 474 36,000  Level FlightAware Transoceanic
Mon 11:44:00 PM 25.9252 -141.1600 247° West 412 474 36,000  Level FlightAware Transoceanic
Mon 11:45:00 PM 25.8809 -141.2773 247° West 412 474 36,000  Level FlightAware Transoceanic
Mon 11:46:00 PM 25.8366 -141.3945 247° West 412 474 36,000  Level FlightAware Transoceanic
Mon 11:47:00 PM 25.7921 -141.5115 247° West 412 474 36,000  Level FlightAware Transoceanic
Mon 11:48:00 PM 25.7476 -141.6285 247° West 412 474 36,000  Level FlightAware Transoceanic
Mon 11:49:00 PM 25.7030 -141.7454 247° West 412 474 36,000  Level FlightAware Transoceanic
Mon 11:50:00 PM 25.6583 -141.8622 247° West 412 474 36,000  Level FlightAware Transoceanic
Mon 11:51:00 PM 25.6135 -141.9790 247° West 412 474 36,000  Level FlightAware Transoceanic
Mon 11:52:00 PM 25.5686 -142.0956 247° West 412 474 36,000  Level FlightAware Transoceanic
Mon 11:53:00 PM 25.5236 -142.2122 247° West 412 474 36,000  Level FlightAware Transoceanic
Mon 11:54:00 PM 25.4785 -142.3286 247° West 412 474 36,000  Level FlightAware Transoceanic
Mon 11:55:00 PM 25.4333 -142.4450 247° West 412 474 36,000  Level FlightAware Transoceanic
Mon 11:56:00 PM 25.3880 -142.5613 247° West 412 474 36,000  Level FlightAware Transoceanic
Mon 11:57:00 PM 25.3427 -142.6775 247° West 412 474 36,000  Level FlightAware Transoceanic
Mon 11:58:00 PM 25.2972 -142.7936 247° West 412 474 36,000  Level FlightAware Transoceanic
Mon 11:59:00 PM 25.2517 -142.9096 247° West 412 474 36,000  Level FlightAware Transoceanic
Tue 12:00:00 AM 25.2061 -143.0256 246° West 412 474 36,000  Level FlightAware Transoceanic
Tue 12:01:00 AM 25.1603 -143.1414 246° West 412 474 36,000  Level FlightAware Transoceanic
Tue 12:02:00 AM 25.1145 -143.2572 246° West 412 474 36,000  Level FlightAware Transoceanic
Tue 12:03:00 AM 25.0686 -143.3729 246° West 412 474 36,000  Level FlightAware Transoceanic
Tue 12:04:00 AM 25.0226 -143.4885 246° West 412 474 36,000  Level FlightAware Transoceanic
Tue 12:05:00 AM 24.9765 -143.6040 246° West 412 474 36,000  Level FlightAware Transoceanic
Tue 12:06:00 AM 24.9304 -143.7194 246° West 412 474 36,000  Level FlightAware Transoceanic
Tue 12:07:00 AM 24.8841 -143.8347 246° West 412 474 36,000  Level FlightAware Transoceanic
Tue 12:08:00 AM 24.8377 -143.9500 246° West 412 474 36,000  Level FlightAware Transoceanic
Tue 12:09:00 AM 24.7913 -144.0651 246° West 412 474 36,000  Level FlightAware Transoceanic
Tue 12:10:00 AM 24.7448 -144.1802 246° West 412 474 36,000  Level FlightAware Transoceanic
Tue 12:11:00 AM 24.6982 -144.2952 246° West 412 474 36,000  Level FlightAware Transoceanic
Tue 12:12:00 AM 24.6515 -144.4101 246° West 412 474 36,000  Level FlightAware Transoceanic
Tue 12:13:00 AM 24.6047 -144.5249 246° West 412 474 36,000  Level FlightAware Transoceanic
Tue 12:14:00 AM 24.5578 -144.6397 246° West 412 474 36,000  Level FlightAware Transoceanic
Tue 12:15:00 AM 24.5109 -144.7543 246° West 412 474 36,000  Level FlightAware Transoceanic
Tue 12:16:00 AM 24.4638 -144.8689 246° West 412 474 36,000  Level FlightAware Transoceanic
Tue 12:17:00 AM 24.4167 -144.9833 246° West 412 474 36,000  Level FlightAware Transoceanic
Tue 12:18:00 AM 24.3687 -145.0995 246° West 412 474 36,000  Level FlightAware Transoceanic
Tue 12:19:00 AM 24.3207 -145.2155 246° West 412 474 36,000  Level FlightAware Transoceanic
Tue 12:20:00 AM 24.2726 -145.3315 245° Southwest 412 474 36,000  Level FlightAware Transoceanic
Tue 12:21:00 AM 24.2243 -145.4474 245° Southwest 412 474 36,000  Level FlightAware Transoceanic
Tue 12:22:00 AM 24.1760 -145.5632 245° Southwest 412 474 36,000  Level FlightAware Transoceanic
Tue 12:22:04 AM 24.4167 -144.9833 246° West 418 481 36,000  Level Oakland Oceanic (ODAPS)
Tue 12:23:00 AM 24.1276 -145.6789 245° Southwest 412 474 36,000  Level FlightAware Transoceanic
Tue 12:24:00 AM 24.0792 -145.7945 245° Southwest 412 474 36,000  Level FlightAware Transoceanic
Tue 12:25:00 AM 24.0306 -145.9101 245° Southwest 412 474 36,000  Level FlightAware Transoceanic
Tue 12:27:19 AM 23.9178 -146.1774 245° Southwest 412 474 36,000  Level FlightAware Transoceanic
Tue 12:28:00 AM 23.8844 -146.2561 245° Southwest 418 481 36,000  Level FlightAware Transoceanic
Tue 12:29:00 AM 23.8355 -146.3713 245° Southwest 418 481 36,000  Level FlightAware Transoceanic
Tue 12:30:00 AM 23.7865 -146.4864 245° Southwest 418 481 36,000  Level FlightAware Transoceanic
Tue 12:31:00 AM 23.7374 -146.6014 245° Southwest 418 481 36,000  Level FlightAware Transoceanic
Tue 12:32:00 AM 23.6882 -146.7164 245° Southwest 418 481 36,000  Level FlightAware Transoceanic
Tue 12:33:00 AM 23.6390 -146.8312 245° Southwest 418 481 36,000  Level FlightAware Transoceanic
Tue 12:34:00 AM 23.5897 -146.9460 245° Southwest 418 481 36,000  Level FlightAware Transoceanic
Tue 12:35:00 AM 23.5402 -147.0606 245° Southwest 418 481 36,000  Level FlightAware Transoceanic
Tue 12:36:00 AM 23.4907 -147.1752 245° Southwest 418 481 36,000  Level FlightAware Transoceanic
Tue 12:37:00 AM 23.4412 -147.2897 245° Southwest 418 481 36,000  Level FlightAware Transoceanic
Tue 12:38:00 AM 23.3915 -147.4041 245° Southwest 418 481 36,000  Level FlightAware Transoceanic
Tue 12:39:00 AM 23.3417 -147.5184 245° Southwest 418 481 36,000  Level FlightAware Transoceanic
Tue 12:40:00 AM 23.2919 -147.6327 245° Southwest 418 481 36,000  Level FlightAware Transoceanic
Tue 12:41:00 AM 23.2420 -147.7468 245° Southwest 418 481 36,000  Level FlightAware Transoceanic
Tue 12:42:00 AM 23.1920 -147.8609 244° Southwest 418 481 36,000  Level FlightAware Transoceanic
Tue 12:43:00 AM 23.1419 -147.9749 244° Southwest 418 481 36,000  Level FlightAware Transoceanic
Tue 12:44:00 AM 23.0917 -148.0888 244° Southwest 418 481 36,000  Level FlightAware Transoceanic
Tue 12:45:00 AM 23.0415 -148.2026 244° Southwest 418 481 36,000  Level FlightAware Transoceanic
Tue 12:46:00 AM 22.9912 -148.3163 244° Southwest 418 481 36,000  Level FlightAware Transoceanic
Tue 12:47:00 AM 22.9408 -148.4299 244° Southwest 418 481 36,000  Level FlightAware Transoceanic
Tue 12:48:00 AM 22.8903 -148.5435 244° Southwest 418 481 36,000  Level FlightAware Transoceanic
Tue 12:49:00 AM 22.8397 -148.6570 244° Southwest 418 481 36,000  Level FlightAware Transoceanic
Tue 12:50:00 AM 22.7890 -148.7703 244° Southwest 418 481 36,000  Level FlightAware Transoceanic
Tue 12:51:00 AM 22.7383 -148.8836 244° Southwest 418 481 36,000  Level FlightAware Transoceanic
Tue 12:52:00 AM 22.6875 -148.9969 244° Southwest 418 481 36,000  Level FlightAware Transoceanic
Tue 12:53:00 AM 22.6366 -149.1100 244° Southwest 418 481 36,000  Level FlightAware Transoceanic
Tue 12:54:00 AM 22.5856 -149.2231 244° Southwest 418 481 36,000  Level FlightAware Transoceanic
Tue 12:55:00 AM 22.5346 -149.3360 244° Southwest 418 481 36,000  Level FlightAware Transoceanic
Tue 12:56:00 AM 22.4835 -149.4489 244° Southwest 418 481 36,000  Level FlightAware Transoceanic
Tue 12:57:00 AM 22.4323 -149.5617 244° Southwest 418 481 36,000  Level FlightAware Transoceanic
Tue 12:58:00 AM 22.3810 -149.6744 244° Southwest 418 481 36,000  Level FlightAware Transoceanic
Tue 12:59:00 AM 22.3296 -149.7870 244° Southwest 418 481 36,000  Level FlightAware Transoceanic
Tue 01:00:00 AM 22.2782 -149.8996 244° Southwest 418 481 36,000  Level FlightAware Transoceanic
Tue 01:01:00 AM 22.2267 -150.0121 244° Southwest 418 481 36,000  Level FlightAware Transoceanic
Tue 01:02:00 AM 22.1751 -150.1245 244° Southwest 418 481 36,000  Level FlightAware Transoceanic
Tue 01:03:00 AM 22.1234 -150.2368 244° Southwest 418 481 36,000  Level FlightAware Transoceanic
Tue 01:04:00 AM 22.0716 -150.3490 244° Southwest 418 481 36,000  Level FlightAware Transoceanic
Tue 01:05:00 AM 22.0198 -150.4611 243° Southwest 418 481 36,000  Level FlightAware Transoceanic
Tue 01:06:00 AM 21.9679 -150.5732 243° Southwest 418 481 36,000  Level FlightAware Transoceanic
Tue 01:07:00 AM 21.9159 -150.6851 243° Southwest 418 481 36,000  Level FlightAware Transoceanic
Tue 01:08:00 AM 21.8639 -150.7970 243° Southwest 418 481 36,000  Level FlightAware Transoceanic
Tue 01:09:00 AM 21.8118 -150.9088 243° Southwest 418 481 36,000  Level FlightAware Transoceanic
Tue 01:10:00 AM 21.7596 -151.0206 243° Southwest 418 481 36,000  Level FlightAware Transoceanic
Tue 01:11:00 AM 21.7073 -151.1322 243° Southwest 418 481 36,000  Level FlightAware Transoceanic
Tue 01:12:00 AM 21.6549 -151.2438 243° Southwest 418 481 36,000  Level FlightAware Transoceanic
Tue 01:13:00 AM 21.6025 -151.3553 243° Southwest 418 481 36,000  Level FlightAware Transoceanic
Tue 01:14:00 AM 21.5500 -151.4667 243° Southwest 418 481 36,000  Level FlightAware Transoceanic
Tue 01:15:00 AM 21.4969 -151.5767 243° Southwest 418 481 36,000  Level FlightAware Transoceanic
Tue 01:16:00 AM 21.4437 -151.6867 243° Southwest 418 481 36,000 -667 Level FlightAware Transoceanic
Tue 01:16:30 AM 21.5000 -151.6500 242° Southwest 410 472 35,000  Descending Honolulu Center
Tue 01:17:00 AM 21.3904 -151.7966 242° Southwest 418 481 36,000  Climbing FlightAware Transoceanic
Tue 01:17:30 AM 21.4667 -151.7667 253° West 410 472 35,000  Descending Honolulu Center
Tue 01:18:00 AM 21.3371 -151.9064 242° Southwest 418 481 36,000  Climbing FlightAware Transoceanic
Tue 01:18:30 AM 21.4667 -151.9000 270° West 430 495 35,000  Descending Honolulu Center
Tue 01:19:00 AM 21.2837 -152.0161 242° Southwest 418 481 36,000  Climbing FlightAware Transoceanic
Tue 01:19:30 AM 21.4500 -152.0333 262° West 420 483 35,000  Descending Honolulu Center
Tue 01:20:00 AM 21.2303 -152.1257 242° Southwest 418 481 36,000  Climbing FlightAware Transoceanic
Tue 01:20:30 AM 21.4333 -152.1500 261° West 430 495 35,000  Descending Honolulu Center
Tue 01:21:00 AM 21.1767 -152.2353 242° Southwest 418 481 36,000  Climbing FlightAware Transoceanic
Tue 01:21:30 AM 21.4167 -152.2833 262° West 430 495 35,000 -667 Descending Honolulu Center
Tue 01:22:30 AM 21.4000 -152.4167 262° West 440 506 35,000  Level Honolulu Center
Tue 01:23:30 AM 21.3833 -152.5333 261° West 420 483 35,000 400 Level Honolulu Center
Tue 01:24:30 AM 21.3667 -152.6667 262° West 430 495 35,800 -100 Climbing Honolulu Center
Tue 01:25:30 AM 21.3500 -152.8000 262° West 440 506 34,800 -1,000 Descending Honolulu Center
Tue 01:26:30 AM 21.3333 -152.9167 261° West 430 495 33,800 -942 Descending Honolulu Center
Tue 01:27:31 AM 21.3167 -153.0500 262° West 440 506 32,900 -942 Descending Honolulu Center
Tue 01:28:31 AM 21.3000 -153.1833 262° West 450 518 31,900 -1,000 Descending Honolulu Center
Tue 01:29:31 AM 21.2833 -153.3167 262° West 440 506 30,900 -1,000 Descending Honolulu Center
Tue 01:30:31 AM 21.2667 -153.4500 262° West 440 506 29,900 -1,000 Descending Honolulu Center
Tue 01:31:31 AM 21.2500 -153.5667 261° West 430 495 28,900 -992 Descending Honolulu Center
Tue 01:32:32 AM 21.2333 -153.7000 262° West 430 495 27,900 -1,000 Descending Honolulu Center
Tue 01:33:31 AM 21.2167 -153.8167 261° West 420 483 26,900 -958 Descending Honolulu Center
Tue 01:34:31 AM 21.2000 -153.9500 262° West 430 495 26,000 -446 Descending Honolulu Center
Tue 01:35:32 AM 21.1833 -154.0667 261° West 420 483 26,000  Level Honolulu Center
Tue 01:36:32 AM 21.1667 -154.2000 262° West 420 483 26,000  Level Honolulu Center
Tue 01:37:32 AM 21.1500 -154.3167 261° West 420 483 26,000 -100 Level Honolulu Center
Tue 01:38:32 AM 21.1333 -154.4333 261° West 420 483 25,800 -600 Descending Honolulu Center
Tue 01:39:32 AM 21.1167 -154.5667 262° West 420 483 24,800 -900 Descending Honolulu Center
Tue 01:40:32 AM 21.1000 -154.6833 261° West 420 483 24,000 -397 Descending Honolulu Center
Tue 01:41:33 AM 21.0833 -154.8167 262° West 420 483 24,000  Level Honolulu Center
Tue 01:42:32 AM 21.0667 -154.9333 261° West 420 483 24,000  Level Honolulu Center
Tue 01:43:32 AM 21.0500 -155.0500 261° West 410 472 24,000  Level Honolulu Center
Tue 01:44:33 AM 21.0167 -155.1667 253° West 420 483 24,000  Level Honolulu Center
Tue 01:45:33 AM 21.0000 -155.3000 262° West 410 472 24,000  Level Honolulu Center
Tue 01:46:33 AM 20.9833 -155.4167 261° West 410 472 24,000  Level Honolulu Center
Tue 01:47:33 AM 20.9667 -155.5333 261° West 420 483 24,000  Level Honolulu Center
Tue 01:48:33 AM 20.9500 -155.6667 262° West 410 472 24,000  Level Honolulu Center
Tue 01:49:33 AM 20.9333 -155.7833 261° West 410 472 24,000  Level Honolulu Center
Tue 01:50:33 AM 20.9167 -155.9000 261° West 420 483 24,000  Level Honolulu Center
Tue 01:51:33 AM 20.9000 -156.0333 262° West 410 472 24,000  Level Honolulu Center
Tue 01:52:34 AM 20.8833 -156.1500 261° West 410 472 24,000  Level Honolulu Center
Tue 01:53:34 AM 20.8667 -156.2833 262° West 410 472 24,000  Level Honolulu Center
Tue 01:55:34 AM 20.8167 -156.5167 257° West 420 483 24,000  Level Honolulu Center
Tue 01:56:34 AM 20.8000 -156.6500 262° West 410 472 24,000 -150 Level Honolulu Center
Tue 01:57:34 AM 20.7833 -156.7667 261° West 410 472 23,700 -650 Descending Honolulu Center
Tue 01:58:34 AM 20.7667 -156.8833 261° West 410 472 22,700 -1,000 Descending Honolulu Center
Tue 01:59:34 AM 20.7667 -157.0000 270° West 390 449 21,700 -1,339 Descending Honolulu Center
Tue 02:00:35 AM 20.8000 -157.1000 290° West 400 460 20,000 -1,587 Descending Honolulu Center
Tue 02:01:35 AM 20.8333 -157.2167 287° West 390 449 18,500 -1,613 Descending Honolulu Center
Tue 02:02:34 AM 20.8667 -157.3167 290° West 370 426 16,800 -2,067 Descending Honolulu Center
Tue 02:03:34 AM 20.9167 -157.4333 295° West 380 437 14,400 -1,983 Descending Honolulu Center
Tue 02:04:35 AM 20.9667 -157.5333 298° West 360 414 12,800 -1,587 Descending Honolulu Center
Tue 02:05:35 AM 21.0000 -157.6167 293° West 330 380 11,200 -1,650 Descending Honolulu Center
Tue 02:06:35 AM 21.0333 -157.7000 293° West 270 311 9,500 -2,050 Descending Honolulu Center
Tue 02:07:35 AM 21.0667 -157.7667 298° West 270 311 7,100 -2,350 Descending Honolulu Center
Tue 02:08:35 AM 21.1000 -157.8500 293° West 270 311 4,800 -1,800 Descending Honolulu Center
Tue 02:09:35 AM 21.1333 -157.9167 298° West 250 288 3,500 -1,300 Descending Honolulu Center

Login

Don't have an account? Register now (free) for customized features, flight alerts, and more!